sensor_id;sensor_type;location;lat;lon;timestamp;P1;P2;P0
64627;PMS5003;68467;50.960;0.314;2024-02-26T00:00:06;2;2;
64627;PMS5003;68467;50.960;0.314;2024-02-26T00:02:33;3;3;
64627;PMS5003;68467;50.960;0.314;2024-02-26T00:05:00;1;1;
64627;PMS5003;68467;50.960;0.314;2024-02-26T00:07:28;2;2;
64627;PMS5003;68467;50.960;0.314;2024-02-26T00:09:55;3;3;
64627;PMS5003;68467;50.960;0.314;2024-02-26T00:12:22;3;2;
64627;PMS5003;68467;50.960;0.314;2024-02-26T00:14:49;3;3;
64627;PMS5003;68467;50.960;0.314;2024-02-26T00:17:16;3;3;
64627;PMS5003;68467;50.960;0.314;2024-02-26T00:19:43;3;3;
64627;PMS5003;68467;50.960;0.314;2024-02-26T00:22:11;4;4;
64627;PMS5003;68467;50.960;0.314;2024-02-26T00:24:39;4;4;
64627;PMS5003;68467;50.960;0.314;2024-02-26T00:27:07;6;6;
64627;PMS5003;68467;50.960;0.314;2024-02-26T00:29:34;4;4;
64627;PMS5003;68467;50.960;0.314;2024-02-26T00:32:01;5;4;
64627;PMS5003;68467;50.960;0.314;2024-02-26T00:34:28;5;5;
64627;PMS5003;68467;50.960;0.314;2024-02-26T00:36:55;7;7;
64627;PMS5003;68467;50.960;0.314;2024-02-26T00:39:22;4;4;
64627;PMS5003;68467;50.960;0.314;2024-02-26T00:41:50;5;5;
64627;PMS5003;68467;50.960;0.314;2024-02-26T00:44:17;4;3;
64627;PMS5003;68467;50.960;0.314;2024-02-26T00:46:44;7;6;
64627;PMS5003;68467;50.960;0.314;2024-02-26T00:49:11;7;7;
64627;PMS5003;68467;50.960;0.314;2024-02-26T00:51:38;8;7;
64627;PMS5003;68467;50.960;0.314;2024-02-26T00:54:05;6;6;
64627;PMS5003;68467;50.960;0.314;2024-02-26T00:56:32;6;6;
64627;PMS5003;68467;50.960;0.314;2024-02-26T00:58:59;6;6;
64627;PMS5003;68467;50.960;0.314;2024-02-26T01:01:27;7;6;
64627;PMS5003;68467;50.960;0.314;2024-02-26T01:03:54;8;8;
64627;PMS5003;68467;50.960;0.314;2024-02-26T01:06:21;6;6;
64627;PMS5003;68467;50.960;0.314;2024-02-26T01:08:48;7;6;
64627;PMS5003;68467;50.960;0.314;2024-02-26T01:11:16;7;6;
64627;PMS5003;68467;50.960;0.314;2024-02-26T01:13:44;8;7;
64627;PMS5003;68467;50.960;0.314;2024-02-26T01:16:11;7;7;
64627;PMS5003;68467;50.960;0.314;2024-02-26T01:18:39;6;6;
64627;PMS5003;68467;50.960;0.314;2024-02-26T01:21:05;7;7;
64627;PMS5003;68467;50.960;0.314;2024-02-26T01:23:33;8;8;
64627;PMS5003;68467;50.960;0.314;2024-02-26T01:26:00;9;9;
64627;PMS5003;68467;50.960;0.314;2024-02-26T01:28:27;13;12;
64627;PMS5003;68467;50.960;0.314;2024-02-26T01:30:55;10;10;
64627;PMS5003;68467;50.960;0.314;2024-02-26T01:33:22;12;11;
64627;PMS5003;68467;50.960;0.314;2024-02-26T01:35:50;10;10;
64627;PMS5003;68467;50.960;0.314;2024-02-26T01:38:17;12;12;
64627;PMS5003;68467;50.960;0.314;2024-02-26T01:40:44;12;11;
64627;PMS5003;68467;50.960;0.314;2024-02-26T01:43:11;13;12;
64627;PMS5003;68467;50.960;0.314;2024-02-26T01:45:38;10;10;
64627;PMS5003;68467;50.960;0.314;2024-02-26T01:48:05;9;9;
64627;PMS5003;68467;50.960;0.314;2024-02-26T01:50:33;10;9;
64627;PMS5003;68467;50.960;0.314;2024-02-26T01:53:01;8;8;
64627;PMS5003;68467;50.960;0.314;2024-02-26T01:55:28;9;9;
64627;PMS5003;68467;50.960;0.314;2024-02-26T01:57:55;11;9;
64627;PMS5003;68467;50.960;0.314;2024-02-26T02:00:24;7;7;
64627;PMS5003;68467;50.960;0.314;2024-02-26T02:02:51;7;7;
64627;PMS5003;68467;50.960;0.314;2024-02-26T02:05:19;6;6;
64627;PMS5003;68467;50.960;0.314;2024-02-26T02:07:48;8;8;
64627;PMS5003;68467;50.960;0.314;2024-02-26T02:10:16;9;9;
64627;PMS5003;68467;50.960;0.314;2024-02-26T02:12:43;7;6;
64627;PMS5003;68467;50.960;0.314;2024-02-26T02:15:10;9;7;
64627;PMS5003;68467;50.960;0.314;2024-02-26T02:17:37;6;6;
64627;PMS5003;68467;50.960;0.314;2024-02-26T02:20:07;9;8;
64627;PMS5003;68467;50.960;0.314;2024-02-26T02:22:36;6;6;
64627;PMS5003;68467;50.960;0.314;2024-02-26T02:25:03;9;8;
64627;PMS5003;68467;50.960;0.314;2024-02-26T02:27:32;8;7;
64627;PMS5003;68467;50.960;0.314;2024-02-26T02:30:00;8;7;
64627;PMS5003;68467;50.960;0.314;2024-02-26T02:32:28;9;8;
64627;PMS5003;68467;50.960;0.314;2024-02-26T02:34:56;9;8;
64627;PMS5003;68467;50.960;0.314;2024-02-26T02:37:24;9;9;
64627;PMS5003;68467;50.960;0.314;2024-02-26T02:39:51;8;7;
64627;PMS5003;68467;50.960;0.314;2024-02-26T02:42:18;13;12;
64627;PMS5003;68467;50.960;0.314;2024-02-26T02:44:46;9;8;
64627;PMS5003;68467;50.960;0.314;2024-02-26T02:47:13;9;9;
64627;PMS5003;68467;50.960;0.314;2024-02-26T02:49:40;6;6;
64627;PMS5003;68467;50.960;0.314;2024-02-26T02:52:07;7;7;
64627;PMS5003;68467;50.960;0.314;2024-02-26T02:54:35;9;8;
64627;PMS5003;68467;50.960;0.314;2024-02-26T02:57:02;9;9;
64627;PMS5003;68467;50.960;0.314;2024-02-26T02:59:29;9;8;
64627;PMS5003;68467;50.960;0.314;2024-02-26T03:01:57;8;8;
64627;PMS5003;68467;50.960;0.314;2024-02-26T03:04:24;10;9;
64627;PMS5003;68467;50.960;0.314;2024-02-26T03:06:51;6;6;
64627;PMS5003;68467;50.960;0.314;2024-02-26T03:09:18;9;9;
64627;PMS5003;68467;50.960;0.314;2024-02-26T03:11:45;11;10;
64627;PMS5003;68467;50.960;0.314;2024-02-26T03:14:12;10;10;
64627;PMS5003;68467;50.960;0.314;2024-02-26T03:16:40;12;11;
64627;PMS5003;68467;50.960;0.314;2024-02-26T03:19:07;8;8;
64627;PMS5003;68467;50.960;0.314;2024-02-26T03:21:34;15;11;
64627;PMS5003;68467;50.960;0.314;2024-02-26T03:24:01;10;9;
64627;PMS5003;68467;50.960;0.314;2024-02-26T03:26:29;11;11;
64627;PMS5003;68467;50.960;0.314;2024-02-26T03:28:57;11;11;
64627;PMS5003;68467;50.960;0.314;2024-02-26T03:31:24;10;10;
64627;PMS5003;68467;50.960;0.314;2024-02-26T03:33:51;9;9;
64627;PMS5003;68467;50.960;0.314;2024-02-26T03:36:18;12;12;
64627;PMS5003;68467;50.960;0.314;2024-02-26T03:38:45;12;12;
64627;PMS5003;68467;50.960;0.314;2024-02-26T03:41:12;11;11;
64627;PMS5003;68467;50.960;0.314;2024-02-26T03:43:39;14;13;
64627;PMS5003;68467;50.960;0.314;2024-02-26T03:46:07;17;14;
64627;PMS5003;68467;50.960;0.314;2024-02-26T03:48:34;11;11;
64627;PMS5003;68467;50.960;0.314;2024-02-26T03:51:02;10;10;
64627;PMS5003;68467;50.960;0.314;2024-02-26T03:53:30;12;12;
64627;PMS5003;68467;50.960;0.314;2024-02-26T03:55:57;11;11;
64627;PMS5003;68467;50.960;0.314;2024-02-26T03:58:24;11;10;
64627;PMS5003;68467;50.960;0.314;2024-02-26T04:00:52;12;11;
64627;PMS5003;68467;50.960;0.314;2024-02-26T04:03:19;11;11;
64627;PMS5003;68467;50.960;0.314;2024-02-26T04:05:46;13;12;
64627;PMS5003;68467;50.960;0.314;2024-02-26T04:08:14;13;13;
64627;PMS5003;68467;50.960;0.314;2024-02-26T04:10:41;16;15;
64627;PMS5003;68467;50.960;0.314;2024-02-26T04:13:08;20;13;
64627;PMS5003;68467;50.960;0.314;2024-02-26T04:15:35;18;16;
64627;PMS5003;68467;50.960;0.314;2024-02-26T04:18:02;19;17;
64627;PMS5003;68467;50.960;0.314;2024-02-26T04:20:30;16;15;
64627;PMS5003;68467;50.960;0.314;2024-02-26T04:22:56;14;13;
64627;PMS5003;68467;50.960;0.314;2024-02-26T04:25:23;19;17;
64627;PMS5003;68467;50.960;0.314;2024-02-26T04:27:51;23;22;
64627;PMS5003;68467;50.960;0.314;2024-02-26T04:30:18;18;17;
64627;PMS5003;68467;50.960;0.314;2024-02-26T04:32:45;20;18;
64627;PMS5003;68467;50.960;0.314;2024-02-26T04:35:12;17;17;
64627;PMS5003;68467;50.960;0.314;2024-02-26T04:37:40;14;14;
64627;PMS5003;68467;50.960;0.314;2024-02-26T04:40:07;15;13;
64627;PMS5003;68467;50.960;0.314;2024-02-26T04:42:35;16;15;
64627;PMS5003;68467;50.960;0.314;2024-02-26T04:45:02;15;14;
64627;PMS5003;68467;50.960;0.314;2024-02-26T04:47:30;19;19;
64627;PMS5003;68467;50.960;0.314;2024-02-26T04:49:57;16;15;
64627;PMS5003;68467;50.960;0.314;2024-02-26T04:52:25;15;14;
64627;PMS5003;68467;50.960;0.314;2024-02-26T04:54:53;16;16;
64627;PMS5003;68467;50.960;0.314;2024-02-26T04:57:20;13;13;
64627;PMS5003;68467;50.960;0.314;2024-02-26T04:59:48;16;16;
64627;PMS5003;68467;50.960;0.314;2024-02-26T05:02:15;23;21;
64627;PMS5003;68467;50.960;0.314;2024-02-26T05:04:42;19;17;
64627;PMS5003;68467;50.960;0.314;2024-02-26T05:07:09;22;19;
64627;PMS5003;68467;50.960;0.314;2024-02-26T05:09:36;23;22;
64627;PMS5003;68467;50.960;0.314;2024-02-26T05:12:04;27;23;
64627;PMS5003;68467;50.960;0.314;2024-02-26T05:14:32;19;18;
64627;PMS5003;68467;50.960;0.314;2024-02-26T05:17:00;18;16;
64627;PMS5003;68467;50.960;0.314;2024-02-26T05:19:27;16;15;
64627;PMS5003;68467;50.960;0.314;2024-02-26T05:21:54;16;15;
64627;PMS5003;68467;50.960;0.314;2024-02-26T05:24:21;20;20;
64627;PMS5003;68467;50.960;0.314;2024-02-26T05:26:48;21;20;
64627;PMS5003;68467;50.960;0.314;2024-02-26T05:29:15;21;18;
64627;PMS5003;68467;50.960;0.314;2024-02-26T05:31:43;22;17;
64627;PMS5003;68467;50.960;0.314;2024-02-26T05:34:10;22;21;
64627;PMS5003;68467;50.960;0.314;2024-02-26T05:36:37;21;15;
64627;PMS5003;68467;50.960;0.314;2024-02-26T05:39:04;20;17;
64627;PMS5003;68467;50.960;0.314;2024-02-26T05:41:32;16;16;
64627;PMS5003;68467;50.960;0.314;2024-02-26T05:44:00;19;16;
64627;PMS5003;68467;50.960;0.314;2024-02-26T05:46:27;17;13;
64627;PMS5003;68467;50.960;0.314;2024-02-26T05:48:54;16;16;
64627;PMS5003;68467;50.960;0.314;2024-02-26T05:51:21;14;13;
64627;PMS5003;68467;50.960;0.314;2024-02-26T05:53:48;13;12;
64627;PMS5003;68467;50.960;0.314;2024-02-26T05:56:15;13;11;
64627;PMS5003;68467;50.960;0.314;2024-02-26T05:58:42;12;11;
64627;PMS5003;68467;50.960;0.314;2024-02-26T06:01:10;17;16;
64627;PMS5003;68467;50.960;0.314;2024-02-26T06:03:37;13;13;
64627;PMS5003;68467;50.960;0.314;2024-02-26T06:06:04;12;10;
64627;PMS5003;68467;50.960;0.314;2024-02-26T06:08:32;16;14;
64627;PMS5003;68467;50.960;0.314;2024-02-26T06:10:59;14;13;
64627;PMS5003;68467;50.960;0.314;2024-02-26T06:13:30;12;11;
64627;PMS5003;68467;50.960;0.314;2024-02-26T06:15:58;10;9;
64627;PMS5003;68467;50.960;0.314;2024-02-26T06:18:24;12;11;
64627;PMS5003;68467;50.960;0.314;2024-02-26T06:20:52;13;11;
64627;PMS5003;68467;50.960;0.314;2024-02-26T06:23:19;11;10;
64627;PMS5003;68467;50.960;0.314;2024-02-26T06:25:46;11;10;
64627;PMS5003;68467;50.960;0.314;2024-02-26T06:28:13;9;9;
64627;PMS5003;68467;50.960;0.314;2024-02-26T06:30:40;11;10;
64627;PMS5003;68467;50.960;0.314;2024-02-26T06:33:07;7;7;
64627;PMS5003;68467;50.960;0.314;2024-02-26T06:35:33;12;11;
64627;PMS5003;68467;50.960;0.314;2024-02-26T06:38:01;10;10;
64627;PMS5003;68467;50.960;0.314;2024-02-26T06:40:28;9;8;
64627;PMS5003;68467;50.960;0.314;2024-02-26T06:42:55;8;7;
64627;PMS5003;68467;50.960;0.314;2024-02-26T06:45:22;7;7;
64627;PMS5003;68467;50.960;0.314;2024-02-26T06:47:49;9;9;
64627;PMS5003;68467;50.960;0.314;2024-02-26T06:50:16;8;7;
64627;PMS5003;68467;50.960;0.314;2024-02-26T06:52:44;9;7;
64627;PMS5003;68467;50.960;0.314;2024-02-26T06:55:11;10;10;
64627;PMS5003;68467;50.960;0.314;2024-02-26T06:57:38;6;6;
64627;PMS5003;68467;50.960;0.314;2024-02-26T07:00:06;9;9;
64627;PMS5003;68467;50.960;0.314;2024-02-26T07:02:35;9;8;
64627;PMS5003;68467;50.960;0.314;2024-02-26T07:05:02;7;6;
64627;PMS5003;68467;50.960;0.314;2024-02-26T07:07:30;8;8;
64627;PMS5003;68467;50.960;0.314;2024-02-26T07:09:57;9;7;
64627;PMS5003;68467;50.960;0.314;2024-02-26T07:12:24;11;7;
64627;PMS5003;68467;50.960;0.314;2024-02-26T07:14:51;7;7;
64627;PMS5003;68467;50.960;0.314;2024-02-26T07:17:20;7;6;
64627;PMS5003;68467;50.960;0.314;2024-02-26T07:19:47;6;5;
64627;PMS5003;68467;50.960;0.314;2024-02-26T07:22:14;6;6;
64627;PMS5003;68467;50.960;0.314;2024-02-26T07:24:41;7;7;
64627;PMS5003;68467;50.960;0.314;2024-02-26T07:27:09;9;8;
64627;PMS5003;68467;50.960;0.314;2024-02-26T07:29:36;5;5;
64627;PMS5003;68467;50.960;0.314;2024-02-26T07:32:04;6;6;
64627;PMS5003;68467;50.960;0.314;2024-02-26T07:34:32;6;5;
64627;PMS5003;68467;50.960;0.314;2024-02-26T07:36:59;7;6;
64627;PMS5003;68467;50.960;0.314;2024-02-26T07:39:28;7;5;
64627;PMS5003;68467;50.960;0.314;2024-02-26T07:41:55;6;5;
64627;PMS5003;68467;50.960;0.314;2024-02-26T07:44:22;4;4;
64627;PMS5003;68467;50.960;0.314;2024-02-26T07:46:49;6;5;
64627;PMS5003;68467;50.960;0.314;2024-02-26T07:49:21;6;6;
64627;PMS5003;68467;50.960;0.314;2024-02-26T07:51:48;4;4;
64627;PMS5003;68467;50.960;0.314;2024-02-26T07:54:16;6;5;
64627;PMS5003;68467;50.960;0.314;2024-02-26T07:56:43;6;5;
64627;PMS5003;68467;50.960;0.314;2024-02-26T07:59:10;6;6;
64627;PMS5003;68467;50.960;0.314;2024-02-26T08:01:37;6;6;
64627;PMS5003;68467;50.960;0.314;2024-02-26T08:04:05;4;4;
64627;PMS5003;68467;50.960;0.314;2024-02-26T08:06:32;5;4;
64627;PMS5003;68467;50.960;0.314;2024-02-26T08:08:59;3;3;
64627;PMS5003;68467;50.960;0.314;2024-02-26T08:11:27;4;4;
64627;PMS5003;68467;50.960;0.314;2024-02-26T08:13:53;5;4;
64627;PMS5003;68467;50.960;0.314;2024-02-26T08:16:22;4;3;
64627;PMS5003;68467;50.960;0.314;2024-02-26T08:18:49;4;3;
64627;PMS5003;68467;50.960;0.314;2024-02-26T08:21:17;4;4;
64627;PMS5003;68467;50.960;0.314;2024-02-26T08:23:44;4;4;
64627;PMS5003;68467;50.960;0.314;2024-02-26T08:26:11;2;2;
64627;PMS5003;68467;50.960;0.314;2024-02-26T08:28:38;5;4;
64627;PMS5003;68467;50.960;0.314;2024-02-26T08:31:05;3;3;
64627;PMS5003;68467;50.960;0.314;2024-02-26T08:33:32;5;5;
64627;PMS5003;68467;50.960;0.314;2024-02-26T08:36:03;4;4;
64627;PMS5003;68467;50.960;0.314;2024-02-26T08:38:31;3;3;
64627;PMS5003;68467;50.960;0.314;2024-02-26T08:40:59;3;3;
64627;PMS5003;68467;50.960;0.314;2024-02-26T08:43:26;3;3;
64627;PMS5003;68467;50.960;0.314;2024-02-26T08:45:53;5;5;
64627;PMS5003;68467;50.960;0.314;2024-02-26T08:48:20;4;3;
64627;PMS5003;68467;50.960;0.314;2024-02-26T08:50:47;2;2;
64627;PMS5003;68467;50.960;0.314;2024-02-26T08:53:15;3;3;
64627;PMS5003;68467;50.960;0.314;2024-02-26T08:55:42;3;3;
64627;PMS5003;68467;50.960;0.314;2024-02-26T08:58:10;5;4;
64627;PMS5003;68467;50.960;0.314;2024-02-26T09:00:37;3;3;
64627;PMS5003;68467;50.960;0.314;2024-02-26T09:03:04;3;2;
64627;PMS5003;68467;50.960;0.314;2024-02-26T09:05:31;3;3;
64627;PMS5003;68467;50.960;0.314;2024-02-26T09:07:59;3;3;
64627;PMS5003;68467;50.960;0.314;2024-02-26T09:10:26;2;2;
64627;PMS5003;68467;50.960;0.314;2024-02-26T09:12:53;2;2;
64627;PMS5003;68467;50.960;0.314;2024-02-26T09:15:20;3;3;
64627;PMS5003;68467;50.960;0.314;2024-02-26T09:17:47;4;4;
64627;PMS5003;68467;50.960;0.314;2024-02-26T09:20:15;3;3;
64627;PMS5003;68467;50.960;0.314;2024-02-26T09:22:43;5;4;
64627;PMS5003;68467;50.960;0.314;2024-02-26T09:25:10;2;2;
64627;PMS5003;68467;50.960;0.314;2024-02-26T09:27:37;5;4;
64627;PMS5003;68467;50.960;0.314;2024-02-26T09:30:04;3;3;
64627;PMS5003;68467;50.960;0.314;2024-02-26T09:32:33;3;3;
64627;PMS5003;68467;50.960;0.314;2024-02-26T09:35:00;4;4;
64627;PMS5003;68467;50.960;0.314;2024-02-26T09:37:27;3;3;
64627;PMS5003;68467;50.960;0.314;2024-02-26T09:39:55;3;3;
64627;PMS5003;68467;50.960;0.314;2024-02-26T09:42:23;4;4;
64627;PMS5003;68467;50.960;0.314;2024-02-26T09:44:53;3;3;
64627;PMS5003;68467;50.960;0.314;2024-02-26T09:47:22;3;3;
64627;PMS5003;68467;50.960;0.314;2024-02-26T09:49:50;2;2;
64627;PMS5003;68467;50.960;0.314;2024-02-26T09:52:19;4;3;
64627;PMS5003;68467;50.960;0.314;2024-02-26T09:54:47;2;2;
64627;PMS5003;68467;50.960;0.314;2024-02-26T09:57:15;3;3;
64627;PMS5003;68467;50.960;0.314;2024-02-26T09:59:43;3;3;
64627;PMS5003;68467;50.960;0.314;2024-02-26T10:02:13;4;3;
64627;PMS5003;68467;50.960;0.314;2024-02-26T10:04:42;3;2;
64627;PMS5003;68467;50.960;0.314;2024-02-26T10:07:10;5;3;
64627;PMS5003;68467;50.960;0.314;2024-02-26T10:09:39;3;3;
64627;PMS5003;68467;50.960;0.314;2024-02-26T10:12:07;2;2;
64627;PMS5003;68467;50.960;0.314;2024-02-26T10:14:38;2;2;
64627;PMS5003;68467;50.960;0.314;2024-02-26T10:17:06;3;3;
64627;PMS5003;68467;50.960;0.314;2024-02-26T10:19:34;3;3;
64627;PMS5003;68467;50.960;0.314;2024-02-26T10:22:02;2;2;
64627;PMS5003;68467;50.960;0.314;2024-02-26T10:24:30;3;3;
64627;PMS5003;68467;50.960;0.314;2024-02-26T10:26:58;3;3;
64627;PMS5003;68467;50.960;0.314;2024-02-26T10:29:25;2;2;
64627;PMS5003;68467;50.960;0.314;2024-02-26T10:31:52;3;3;
64627;PMS5003;68467;50.960;0.314;2024-02-26T10:34:20;3;2;
64627;PMS5003;68467;50.960;0.314;2024-02-26T10:36:49;2;2;
64627;PMS5003;68467;50.960;0.314;2024-02-26T10:39:16;2;2;
64627;PMS5003;68467;50.960;0.314;2024-02-26T10:41:44;3;3;
64627;PMS5003;68467;50.960;0.314;2024-02-26T10:44:11;3;3;
64627;PMS5003;68467;50.960;0.314;2024-02-26T10:46:40;1;1;
64627;PMS5003;68467;50.960;0.314;2024-02-26T10:49:12;3;2;
64627;PMS5003;68467;50.960;0.314;2024-02-26T10:51:42;3;2;
64627;PMS5003;68467;50.960;0.314;2024-02-26T10:54:15;3;3;
64627;PMS5003;68467;50.960;0.314;2024-02-26T10:56:42;3;3;
64627;PMS5003;68467;50.960;0.314;2024-02-26T10:59:12;2;2;
64627;PMS5003;68467;50.960;0.314;2024-02-26T11:01:40;3;3;
64627;PMS5003;68467;50.960;0.314;2024-02-26T11:04:09;4;4;
64627;PMS5003;68467;50.960;0.314;2024-02-26T11:06:38;2;2;
64627;PMS5003;68467;50.960;0.314;2024-02-26T11:09:06;2;2;
64627;PMS5003;68467;50.960;0.314;2024-02-26T11:11:37;2;2;
64627;PMS5003;68467;50.960;0.314;2024-02-26T11:14:04;1;1;
64627;PMS5003;68467;50.960;0.314;2024-02-26T11:16:32;2;2;
64627;PMS5003;68467;50.960;0.314;2024-02-26T11:19:02;5;5;
64627;PMS5003;68467;50.960;0.314;2024-02-26T11:21:30;2;2;
64627;PMS5003;68467;50.960;0.314;2024-02-26T11:23:57;3;3;
64627;PMS5003;68467;50.960;0.314;2024-02-26T11:26:24;2;2;
64627;PMS5003;68467;50.960;0.314;2024-02-26T11:28:53;1;1;
64627;PMS5003;68467;50.960;0.314;2024-02-26T11:31:24;2;2;
64627;PMS5003;68467;50.960;0.314;2024-02-26T11:33:51;3;3;
64627;PMS5003;68467;50.960;0.314;2024-02-26T11:36:19;1;1;
64627;PMS5003;68467;50.960;0.314;2024-02-26T11:38:47;3;3;
64627;PMS5003;68467;50.960;0.314;2024-02-26T11:41:15;1;1;
64627;PMS5003;68467;50.960;0.314;2024-02-26T11:43:51;2;2;
64627;PMS5003;68467;50.960;0.314;2024-02-26T11:46:25;4;3;
64627;PMS5003;68467;50.960;0.314;2024-02-26T11:48:54;2;2;
64627;PMS5003;68467;50.960;0.314;2024-02-26T11:51:25;2;2;
64627;PMS5003;68467;50.960;0.314;2024-02-26T11:53:53;1;1;
64627;PMS5003;68467;50.960;0.314;2024-02-26T11:56:22;4;4;
64627;PMS5003;68467;50.960;0.314;2024-02-26T11:58:53;2;2;
64627;PMS5003;68467;50.960;0.314;2024-02-26T12:01:41;8;6;
64627;PMS5003;68467;50.960;0.314;2024-02-26T12:04:12;4;4;
64627;PMS5003;68467;50.960;0.314;2024-02-26T12:06:43;7;5;
64627;PMS5003;68467;50.960;0.314;2024-02-26T12:09:13;1;1;
64627;PMS5003;68467;50.960;0.314;2024-02-26T12:11:57;3;3;
64627;PMS5003;68467;50.960;0.314;2024-02-26T12:14:25;1;1;
64627;PMS5003;68467;50.960;0.314;2024-02-26T12:16:52;2;2;
64627;PMS5003;68467;50.960;0.314;2024-02-26T12:19:21;4;4;
64627;PMS5003;68467;50.960;0.314;2024-02-26T12:21:51;1;1;
64627;PMS5003;68467;50.960;0.314;2024-02-26T12:24:19;4;3;
64627;PMS5003;68467;50.960;0.314;2024-02-26T12:26:46;6;5;
64627;PMS5003;68467;50.960;0.314;2024-02-26T12:29:14;2;2;
64627;PMS5003;68467;50.960;0.314;2024-02-26T12:31:42;3;3;
64627;PMS5003;68467;50.960;0.314;2024-02-26T12:34:09;2;2;
64627;PMS5003;68467;50.960;0.314;2024-02-26T12:36:37;2;2;
64627;PMS5003;68467;50.960;0.314;2024-02-26T12:39:04;2;2;
64627;PMS5003;68467;50.960;0.314;2024-02-26T12:41:32;2;2;
64627;PMS5003;68467;50.960;0.314;2024-02-26T12:44:00;3;1;
64627;PMS5003;68467;50.960;0.314;2024-02-26T12:46:27;2;2;
64627;PMS5003;68467;50.960;0.314;2024-02-26T12:48:55;2;2;
64627;PMS5003;68467;50.960;0.314;2024-02-26T12:51:24;4;3;
64627;PMS5003;68467;50.960;0.314;2024-02-26T12:53:51;2;2;
64627;PMS5003;68467;50.960;0.314;2024-02-26T12:56:20;1;1;
64627;PMS5003;68467;50.960;0.314;2024-02-26T12:58:48;1;1;
64627;PMS5003;68467;50.960;0.314;2024-02-26T13:01:19;1;1;
64627;PMS5003;68467;50.960;0.314;2024-02-26T13:03:50;4;3;
64627;PMS5003;68467;50.960;0.314;2024-02-26T13:06:18;2;2;
64627;PMS5003;68467;50.960;0.314;2024-02-26T13:08:45;3;3;
64627;PMS5003;68467;50.960;0.314;2024-02-26T13:11:13;4;4;
64627;PMS5003;68467;50.960;0.314;2024-02-26T13:13:40;4;4;
64627;PMS5003;68467;50.960;0.314;2024-02-26T13:16:10;1;1;
64627;PMS5003;68467;50.960;0.314;2024-02-26T13:18:41;3;2;
64627;PMS5003;68467;50.960;0.314;2024-02-26T13:21:09;1;1;
64627;PMS5003;68467;50.960;0.314;2024-02-26T13:23:37;2;2;
64627;PMS5003;68467;50.960;0.314;2024-02-26T13:26:07;2;2;
64627;PMS5003;68467;50.960;0.314;2024-02-26T13:28:34;2;2;
64627;PMS5003;68467;50.960;0.314;2024-02-26T13:31:02;1;1;
64627;PMS5003;68467;50.960;0.314;2024-02-26T13:33:30;1;1;
64627;PMS5003;68467;50.960;0.314;2024-02-26T13:35:58;1;1;
64627;PMS5003;68467;50.960;0.314;2024-02-26T13:38:27;3;3;
64627;PMS5003;68467;50.960;0.314;2024-02-26T13:40:54;2;2;
64627;PMS5003;68467;50.960;0.314;2024-02-26T13:43:21;1;1;
64627;PMS5003;68467;50.960;0.314;2024-02-26T13:45:49;1;1;
64627;PMS5003;68467;50.960;0.314;2024-02-26T13:48:17;3;3;
64627;PMS5003;68467;50.960;0.314;2024-02-26T13:50:45;2;2;
64627;PMS5003;68467;50.960;0.314;2024-02-26T13:53:12;4;4;
64627;PMS5003;68467;50.960;0.314;2024-02-26T13:55:40;3;3;
64627;PMS5003;68467;50.960;0.314;2024-02-26T13:58:08;2;2;
64627;PMS5003;68467;50.960;0.314;2024-02-26T14:00:39;5;5;
64627;PMS5003;68467;50.960;0.314;2024-02-26T14:03:06;2;2;
64627;PMS5003;68467;50.960;0.314;2024-02-26T14:05:33;3;3;
64627;PMS5003;68467;50.960;0.314;2024-02-26T14:08:00;4;2;
64627;PMS5003;68467;50.960;0.314;2024-02-26T14:10:28;2;2;
64627;PMS5003;68467;50.960;0.314;2024-02-26T14:12:56;3;2;
64627;PMS5003;68467;50.960;0.314;2024-02-26T14:15:24;2;2;
64627;PMS5003;68467;50.960;0.314;2024-02-26T14:17:51;2;2;
64627;PMS5003;68467;50.960;0.314;2024-02-26T14:20:19;2;2;
64627;PMS5003;68467;50.960;0.314;2024-02-26T14:22:46;2;2;
64627;PMS5003;68467;50.960;0.314;2024-02-26T14:25:14;3;2;
64627;PMS5003;68467;50.960;0.314;2024-02-26T14:27:41;1;1;
64627;PMS5003;68467;50.960;0.314;2024-02-26T14:30:09;2;2;
64627;PMS5003;68467;50.960;0.314;2024-02-26T14:32:37;2;2;
64627;PMS5003;68467;50.960;0.314;2024-02-26T14:35:05;2;2;
64627;PMS5003;68467;50.960;0.314;2024-02-26T14:37:33;2;2;
64627;PMS5003;68467;50.960;0.314;2024-02-26T14:40:00;1;1;
64627;PMS5003;68467;50.960;0.314;2024-02-26T14:42:27;2;2;
64627;PMS5003;68467;50.960;0.314;2024-02-26T14:44:54;2;1;
64627;PMS5003;68467;50.960;0.314;2024-02-26T14:47:21;2;2;
64627;PMS5003;68467;50.960;0.314;2024-02-26T14:49:48;1;1;
64627;PMS5003;68467;50.960;0.314;2024-02-26T14:52:15;2;2;
64627;PMS5003;68467;50.960;0.314;2024-02-26T14:54:42;4;4;
64627;PMS5003;68467;50.960;0.314;2024-02-26T14:57:11;4;3;
64627;PMS5003;68467;50.960;0.314;2024-02-26T14:59:38;3;3;
64627;PMS5003;68467;50.960;0.314;2024-02-26T15:02:05;1;1;
64627;PMS5003;68467;50.960;0.314;2024-02-26T15:04:32;1;1;
64627;PMS5003;68467;50.960;0.314;2024-02-26T15:07:00;1;1;
64627;PMS5003;68467;50.960;0.314;2024-02-26T15:09:27;1;1;
64627;PMS5003;68467;50.960;0.314;2024-02-26T15:11:54;1;1;
64627;PMS5003;68467;50.960;0.314;2024-02-26T15:14:21;2;2;
64627;PMS5003;68467;50.960;0.314;2024-02-26T15:16:48;1;1;
64627;PMS5003;68467;50.960;0.314;2024-02-26T15:19:15;2;1;
64627;PMS5003;68467;50.960;0.314;2024-02-26T15:21:43;1;1;
64627;PMS5003;68467;50.960;0.314;2024-02-26T15:24:11;1;1;
64627;PMS5003;68467;50.960;0.314;2024-02-26T15:26:38;2;2;
64627;PMS5003;68467;50.960;0.314;2024-02-26T15:29:05;1;1;
64627;PMS5003;68467;50.960;0.314;2024-02-26T15:31:32;2;2;
64627;PMS5003;68467;50.960;0.314;2024-02-26T15:33:59;1;1;
64627;PMS5003;68467;50.960;0.314;2024-02-26T15:36:27;1;1;
64627;PMS5003;68467;50.960;0.314;2024-02-26T15:38:54;1;1;
64627;PMS5003;68467;50.960;0.314;2024-02-26T15:41:21;1;1;
64627;PMS5003;68467;50.960;0.314;2024-02-26T15:43:48;4;3;
64627;PMS5003;68467;50.960;0.314;2024-02-26T15:46:15;1;1;
64627;PMS5003;68467;50.960;0.314;2024-02-26T15:48:42;1;1;
64627;PMS5003;68467;50.960;0.314;2024-02-26T15:51:17;1;1;
64627;PMS5003;68467;50.960;0.314;2024-02-26T15:53:45;1;1;
64627;PMS5003;68467;50.960;0.314;2024-02-26T15:56:12;0;0;
64627;PMS5003;68467;50.960;0.314;2024-02-26T15:58:39;2;2;
64627;PMS5003;68467;50.960;0.314;2024-02-26T16:01:07;1;1;
64627;PMS5003;68467;50.960;0.314;2024-02-26T16:03:36;1;1;
64627;PMS5003;68467;50.960;0.314;2024-02-26T16:06:04;1;1;
64627;PMS5003;68467;50.960;0.314;2024-02-26T16:08:32;2;2;
64627;PMS5003;68467;50.960;0.314;2024-02-26T16:10:59;1;1;
64627;PMS5003;68467;50.960;0.314;2024-02-26T16:13:26;2;2;
64627;PMS5003;68467;50.960;0.314;2024-02-26T16:15:56;1;1;
64627;PMS5003;68467;50.960;0.314;2024-02-26T16:18:28;1;1;
64627;PMS5003;68467;50.960;0.314;2024-02-26T16:20:56;2;2;
64627;PMS5003;68467;50.960;0.314;2024-02-26T16:23:25;2;1;
64627;PMS5003;68467;50.960;0.314;2024-02-26T16:25:52;2;1;
64627;PMS5003;68467;50.960;0.314;2024-02-26T16:28:19;2;2;
64627;PMS5003;68467;50.960;0.314;2024-02-26T16:30:47;2;1;
64627;PMS5003;68467;50.960;0.314;2024-02-26T16:33:14;3;3;
64627;PMS5003;68467;50.960;0.314;2024-02-26T16:35:42;2;2;
64627;PMS5003;68467;50.960;0.314;2024-02-26T16:38:10;1;1;
64627;PMS5003;68467;50.960;0.314;2024-02-26T16:40:37;1;1;
64627;PMS5003;68467;50.960;0.314;2024-02-26T16:43:07;5;3;
64627;PMS5003;68467;50.960;0.314;2024-02-26T16:45:35;1;1;